sensor_id;sensor_type;location;lat;lon;timestamp;P1;durP1;ratioP1;P2;durP2;ratioP2
39346;SDS011;26262;49.836;6.632;2022-08-25T00:00:28;2.42;;;1.90;;
39346;SDS011;26262;49.836;6.632;2022-08-25T00:02:54;4.05;;;2.72;;
39346;SDS011;26262;49.836;6.632;2022-08-25T00:05:20;3.72;;;2.63;;
39346;SDS011;26262;49.836;6.632;2022-08-25T00:07:45;3.03;;;2.35;;
39346;SDS011;26262;49.836;6.632;2022-08-25T00:10:11;4.55;;;2.60;;
39346;SDS011;26262;49.836;6.632;2022-08-25T00:12:36;3.38;;;2.15;;
39346;SDS011;26262;49.836;6.632;2022-08-25T00:15:02;3.58;;;2.20;;
39346;SDS011;26262;49.836;6.632;2022-08-25T00:17:29;3.17;;;2.25;;
39346;SDS011;26262;49.836;6.632;2022-08-25T00:19:54;3.13;;;2.30;;
39346;SDS011;26262;49.836;6.632;2022-08-25T00:22:20;5.45;;;2.63;;
39346;SDS011;26262;49.836;6.632;2022-08-25T00:24:46;3.85;;;2.28;;
39346;SDS011;26262;49.836;6.632;2022-08-25T00:27:11;2.50;;;2.10;;
39346;SDS011;26262;49.836;6.632;2022-08-25T00:29:37;4.10;;;2.40;;
39346;SDS011;26262;49.836;6.632;2022-08-25T00:32:04;3.20;;;2.50;;
39346;SDS011;26262;49.836;6.632;2022-08-25T00:34:32;4.18;;;2.03;;
39346;SDS011;26262;49.836;6.632;2022-08-25T00:36:59;4.88;;;2.30;;
39346;SDS011;26262;49.836;6.632;2022-08-25T00:39:26;3.72;;;2.47;;
39346;SDS011;26262;49.836;6.632;2022-08-25T00:41:53;3.17;;;2.38;;
39346;SDS011;26262;49.836;6.632;2022-08-25T00:44:21;3.28;;;2.30;;
39346;SDS011;26262;49.836;6.632;2022-08-25T00:46:49;4.25;;;2.72;;
39346;SDS011;26262;49.836;6.632;2022-08-25T00:49:19;3.70;;;2.70;;
39346;SDS011;26262;49.836;6.632;2022-08-25T00:51:53;3.55;;;2.53;;
39346;SDS011;26262;49.836;6.632;2022-08-25T00:54:25;3.83;;;2.42;;
39346;SDS011;26262;49.836;6.632;2022-08-25T00:56:54;2.85;;;2.47;;
39346;SDS011;26262;49.836;6.632;2022-08-25T00:59:22;4.45;;;2.47;;
39346;SDS011;26262;49.836;6.632;2022-08-25T01:01:50;3.63;;;2.50;;
39346;SDS011;26262;49.836;6.632;2022-08-25T01:04:17;2.80;;;2.30;;
39346;SDS011;26262;49.836;6.632;2022-08-25T01:06:43;3.95;;;3.20;;
39346;SDS011;26262;49.836;6.632;2022-08-25T01:09:11;3.08;;;2.38;;
39346;SDS011;26262;49.836;6.632;2022-08-25T01:11:38;4.60;;;2.60;;
39346;SDS011;26262;49.836;6.632;2022-08-25T01:14:04;3.72;;;2.80;;
39346;SDS011;26262;49.836;6.632;2022-08-25T01:16:34;3.80;;;2.97;;
39346;SDS011;26262;49.836;6.632;2022-08-25T01:19:02;4.10;;;2.97;;
39346;SDS011;26262;49.836;6.632;2022-08-25T01:21:30;3.45;;;2.42;;
39346;SDS011;26262;49.836;6.632;2022-08-25T01:24:01;3.70;;;2.40;;
39346;SDS011;26262;49.836;6.632;2022-08-25T01:26:28;2.90;;;2.60;;
39346;SDS011;26262;49.836;6.632;2022-08-25T01:28:56;3.17;;;2.17;;
39346;SDS011;26262;49.836;6.632;2022-08-25T01:31:42;3.47;;;2.60;;
39346;SDS011;26262;49.836;6.632;2022-08-25T01:34:09;6.35;;;2.85;;
39346;SDS011;26262;49.836;6.632;2022-08-25T01:36:39;3.58;;;2.35;;
39346;SDS011;26262;49.836;6.632;2022-08-25T01:39:06;3.92;;;2.83;;
39346;SDS011;26262;49.836;6.632;2022-08-25T01:43:58;3.38;;;2.60;;
39346;SDS011;26262;49.836;6.632;2022-08-25T01:46:24;3.85;;;2.88;;
39346;SDS011;26262;49.836;6.632;2022-08-25T01:48:50;3.17;;;2.42;;
39346;SDS011;26262;49.836;6.632;2022-08-25T01:51:18;2.80;;;2.50;;
39346;SDS011;26262;49.836;6.632;2022-08-25T01:53:45;3.47;;;2.75;;
39346;SDS011;26262;49.836;6.632;2022-08-25T01:56:11;3.60;;;2.50;;
39346;SDS011;26262;49.836;6.632;2022-08-25T01:58:41;5.13;;;2.90;;
39346;SDS011;26262;49.836;6.632;2022-08-25T02:01:11;5.30;;;2.72;;
39346;SDS011;26262;49.836;6.632;2022-08-25T02:03:40;3.85;;;2.60;;
39346;SDS011;26262;49.836;6.632;2022-08-25T02:06:09;2.53;;;2.10;;
39346;SDS011;26262;49.836;6.632;2022-08-25T02:08:36;5.20;;;3.03;;
39346;SDS011;26262;49.836;6.632;2022-08-25T02:11:02;5.43;;;2.53;;
39346;SDS011;26262;49.836;6.632;2022-08-25T02:13:28;4.03;;;2.42;;
39346;SDS011;26262;49.836;6.632;2022-08-25T02:15:54;3.53;;;2.58;;
39346;SDS011;26262;49.836;6.632;2022-08-25T02:18:21;3.33;;;2.55;;
39346;SDS011;26262;49.836;6.632;2022-08-25T02:20:47;2.95;;;2.65;;
39346;SDS011;26262;49.836;6.632;2022-08-25T02:23:13;4.82;;;3.05;;
39346;SDS011;26262;49.836;6.632;2022-08-25T02:25:39;2.97;;;2.65;;
39346;SDS011;26262;49.836;6.632;2022-08-25T02:28:06;3.55;;;2.33;;
39346;SDS011;26262;49.836;6.632;2022-08-25T02:30:32;3.57;;;2.53;;
39346;SDS011;26262;49.836;6.632;2022-08-25T02:32:59;3.83;;;2.50;;
39346;SDS011;26262;49.836;6.632;2022-08-25T02:35:24;4.72;;;2.88;;
39346;SDS011;26262;49.836;6.632;2022-08-25T02:37:50;5.13;;;2.90;;
39346;SDS011;26262;49.836;6.632;2022-08-25T02:40:17;3.13;;;2.50;;
39346;SDS011;26262;49.836;6.632;2022-08-25T02:42:45;4.57;;;2.97;;
39346;SDS011;26262;49.836;6.632;2022-08-25T02:45:11;2.95;;;2.63;;
39346;SDS011;26262;49.836;6.632;2022-08-25T02:47:36;3.78;;;2.83;;
39346;SDS011;26262;49.836;6.632;2022-08-25T02:50:03;4.90;;;2.60;;
39346;SDS011;26262;49.836;6.632;2022-08-25T02:52:29;5.40;;;3.08;;
39346;SDS011;26262;49.836;6.632;2022-08-25T02:54:54;2.90;;;2.60;;
39346;SDS011;26262;49.836;6.632;2022-08-25T02:57:20;3.17;;;2.72;;
39346;SDS011;26262;49.836;6.632;2022-08-25T02:59:46;3.97;;;2.65;;
39346;SDS011;26262;49.836;6.632;2022-08-25T03:02:12;3.83;;;2.58;;
39346;SDS011;26262;49.836;6.632;2022-08-25T03:04:39;3.33;;;2.60;;
39346;SDS011;26262;49.836;6.632;2022-08-25T03:07:05;5.53;;;3.13;;
39346;SDS011;26262;49.836;6.632;2022-08-25T03:09:30;4.50;;;2.85;;
39346;SDS011;26262;49.836;6.632;2022-08-25T03:11:56;4.18;;;2.75;;
39346;SDS011;26262;49.836;6.632;2022-08-25T03:14:21;6.00;;;3.33;;
39346;SDS011;26262;49.836;6.632;2022-08-25T03:16:47;2.97;;;2.50;;
39346;SDS011;26262;49.836;6.632;2022-08-25T03:19:13;4.03;;;2.83;;
39346;SDS011;26262;49.836;6.632;2022-08-25T03:21:40;4.25;;;2.72;;
39346;SDS011;26262;49.836;6.632;2022-08-25T03:24:05;3.47;;;2.95;;
39346;SDS011;26262;49.836;6.632;2022-08-25T03:26:31;4.95;;;3.00;;
39346;SDS011;26262;49.836;6.632;2022-08-25T03:29:15;4.68;;;2.92;;
39346;SDS011;26262;49.836;6.632;2022-08-25T03:31:42;3.60;;;3.00;;
39346;SDS011;26262;49.836;6.632;2022-08-25T03:34:09;3.78;;;2.78;;
39346;SDS011;26262;49.836;6.632;2022-08-25T03:36:40;3.97;;;2.75;;
39346;SDS011;26262;49.836;6.632;2022-08-25T03:39:07;3.92;;;2.92;;
39346;SDS011;26262;49.836;6.632;2022-08-25T03:41:33;2.97;;;2.65;;
39346;SDS011;26262;49.836;6.632;2022-08-25T03:43:59;4.13;;;3.35;;
39346;SDS011;26262;49.836;6.632;2022-08-25T03:46:27;4.63;;;3.13;;
39346;SDS011;26262;49.836;6.632;2022-08-25T03:48:54;3.78;;;3.38;;
39346;SDS011;26262;49.836;6.632;2022-08-25T03:51:25;3.40;;;3.00;;
39346;SDS011;26262;49.836;6.632;2022-08-25T03:53:56;4.60;;;3.08;;
39346;SDS011;26262;49.836;6.632;2022-08-25T03:56:22;4.93;;;3.33;;
39346;SDS011;26262;49.836;6.632;2022-08-25T03:58:48;5.97;;;3.20;;
39346;SDS011;26262;49.836;6.632;2022-08-25T04:01:14;5.32;;;3.42;;
39346;SDS011;26262;49.836;6.632;2022-08-25T04:03:40;3.97;;;3.05;;
39346;SDS011;26262;49.836;6.632;2022-08-25T04:06:06;5.53;;;2.85;;
39346;SDS011;26262;49.836;6.632;2022-08-25T04:08:32;4.68;;;3.05;;
39346;SDS011;26262;49.836;6.632;2022-08-25T04:10:58;4.70;;;3.45;;
39346;SDS011;26262;49.836;6.632;2022-08-25T04:13:49;3.85;;;3.20;;
39346;SDS011;26262;49.836;6.632;2022-08-25T04:16:17;4.40;;;3.33;;
39346;SDS011;26262;49.836;6.632;2022-08-25T04:18:45;5.05;;;3.33;;
39346;SDS011;26262;49.836;6.632;2022-08-25T04:21:11;4.05;;;3.63;;
39346;SDS011;26262;49.836;6.632;2022-08-25T04:23:38;4.40;;;3.20;;
39346;SDS011;26262;49.836;6.632;2022-08-25T04:26:08;4.63;;;3.30;;
39346;SDS011;26262;49.836;6.632;2022-08-25T04:28:35;4.47;;;3.55;;
39346;SDS011;26262;49.836;6.632;2022-08-25T04:31:04;5.03;;;3.03;;
39346;SDS011;26262;49.836;6.632;2022-08-25T04:33:30;4.50;;;3.38;;
39346;SDS011;26262;49.836;6.632;2022-08-25T04:35:56;4.05;;;3.03;;
39346;SDS011;26262;49.836;6.632;2022-08-25T04:38:22;5.28;;;3.38;;
39346;SDS011;26262;49.836;6.632;2022-08-25T04:40:54;3.97;;;3.40;;
39346;SDS011;26262;49.836;6.632;2022-08-25T04:43:23;4.70;;;3.10;;
39346;SDS011;26262;49.836;6.632;2022-08-25T04:45:49;4.15;;;3.08;;
39346;SDS011;26262;49.836;6.632;2022-08-25T04:48:15;5.50;;;3.90;;
39346;SDS011;26262;49.836;6.632;2022-08-25T04:50:40;4.03;;;2.90;;
39346;SDS011;26262;49.836;6.632;2022-08-25T04:53:06;3.78;;;3.13;;
39346;SDS011;26262;49.836;6.632;2022-08-25T04:55:31;4.18;;;3.38;;
39346;SDS011;26262;49.836;6.632;2022-08-25T04:57:57;4.47;;;3.30;;
39346;SDS011;26262;49.836;6.632;2022-08-25T05:00:22;5.32;;;3.17;;
39346;SDS011;26262;49.836;6.632;2022-08-25T05:02:48;4.07;;;3.50;;
39346;SDS011;26262;49.836;6.632;2022-08-25T05:05:14;4.72;;;3.20;;
39346;SDS011;26262;49.836;6.632;2022-08-25T05:07:40;4.25;;;3.15;;
39346;SDS011;26262;49.836;6.632;2022-08-25T05:10:05;5.18;;;3.28;;
39346;SDS011;26262;49.836;6.632;2022-08-25T05:12:31;4.05;;;2.97;;
39346;SDS011;26262;49.836;6.632;2022-08-25T05:14:57;4.95;;;3.70;;
39346;SDS011;26262;49.836;6.632;2022-08-25T05:17:43;5.50;;;3.67;;
39346;SDS011;26262;49.836;6.632;2022-08-25T05:20:08;5.28;;;3.47;;
39346;SDS011;26262;49.836;6.632;2022-08-25T05:22:34;3.80;;;3.35;;
39346;SDS011;26262;49.836;6.632;2022-08-25T05:25:00;3.70;;;2.88;;
39346;SDS011;26262;49.836;6.632;2022-08-25T05:27:25;4.30;;;3.60;;
39346;SDS011;26262;49.836;6.632;2022-08-25T05:29:51;4.95;;;3.80;;
39346;SDS011;26262;49.836;6.632;2022-08-25T05:32:16;4.80;;;3.70;;
39346;SDS011;26262;49.836;6.632;2022-08-25T05:34:42;5.53;;;3.60;;
39346;SDS011;26262;49.836;6.632;2022-08-25T05:37:07;4.15;;;3.35;;
39346;SDS011;26262;49.836;6.632;2022-08-25T05:39:33;4.40;;;3.30;;
39346;SDS011;26262;49.836;6.632;2022-08-25T05:41:58;4.43;;;3.40;;
39346;SDS011;26262;49.836;6.632;2022-08-25T05:44:24;4.50;;;3.53;;
39346;SDS011;26262;49.836;6.632;2022-08-25T05:46:49;6.20;;;3.72;;
39346;SDS011;26262;49.836;6.632;2022-08-25T05:49:15;5.65;;;3.70;;
39346;SDS011;26262;49.836;6.632;2022-08-25T05:51:40;6.00;;;4.00;;
39346;SDS011;26262;49.836;6.632;2022-08-25T05:54:06;5.35;;;4.85;;
39346;SDS011;26262;49.836;6.632;2022-08-25T05:56:31;4.85;;;4.07;;
39346;SDS011;26262;49.836;6.632;2022-08-25T05:58:57;5.65;;;3.90;;
39346;SDS011;26262;49.836;6.632;2022-08-25T06:01:26;4.00;;;3.60;;
39346;SDS011;26262;49.836;6.632;2022-08-25T06:04:12;4.72;;;3.75;;
39346;SDS011;26262;49.836;6.632;2022-08-25T06:06:39;4.53;;;3.72;;
39346;SDS011;26262;49.836;6.632;2022-08-25T06:09:06;6.15;;;4.05;;
39346;SDS011;26262;49.836;6.632;2022-08-25T06:11:33;4.75;;;4.05;;
39346;SDS011;26262;49.836;6.632;2022-08-25T06:14:00;6.28;;;3.83;;
39346;SDS011;26262;49.836;6.632;2022-08-25T06:16:25;6.82;;;3.92;;
39346;SDS011;26262;49.836;6.632;2022-08-25T06:18:51;5.68;;;3.92;;
39346;SDS011;26262;49.836;6.632;2022-08-25T06:21:16;4.60;;;3.88;;
39346;SDS011;26262;49.836;6.632;2022-08-25T06:23:42;4.68;;;4.03;;
39346;SDS011;26262;49.836;6.632;2022-08-25T06:26:11;7.95;;;4.03;;
39346;SDS011;26262;49.836;6.632;2022-08-25T06:28:37;4.93;;;4.05;;
39346;SDS011;26262;49.836;6.632;2022-08-25T06:31:03;4.15;;;3.75;;
39346;SDS011;26262;49.836;6.632;2022-08-25T06:33:29;5.10;;;3.88;;
39346;SDS011;26262;49.836;6.632;2022-08-25T06:35:55;3.90;;;3.53;;
39346;SDS011;26262;49.836;6.632;2022-08-25T06:38:21;4.55;;;3.80;;
39346;SDS011;26262;49.836;6.632;2022-08-25T06:40:47;5.65;;;3.80;;
39346;SDS011;26262;49.836;6.632;2022-08-25T06:43:13;4.50;;;3.50;;
39346;SDS011;26262;49.836;6.632;2022-08-25T06:45:39;8.55;;;3.85;;
39346;SDS011;26262;49.836;6.632;2022-08-25T06:48:05;4.78;;;3.67;;
39346;SDS011;26262;49.836;6.632;2022-08-25T06:50:31;6.85;;;3.72;;
39346;SDS011;26262;49.836;6.632;2022-08-25T06:52:56;3.80;;;3.42;;
39346;SDS011;26262;49.836;6.632;2022-08-25T06:55:22;4.97;;;3.78;;
39346;SDS011;26262;49.836;6.632;2022-08-25T06:57:47;5.43;;;3.50;;
39346;SDS011;26262;49.836;6.632;2022-08-25T07:00:17;3.70;;;3.35;;
39346;SDS011;26262;49.836;6.632;2022-08-25T07:02:43;4.18;;;3.50;;
39346;SDS011;26262;49.836;6.632;2022-08-25T07:05:08;4.65;;;3.45;;
39346;SDS011;26262;49.836;6.632;2022-08-25T07:07:35;4.20;;;3.75;;
39346;SDS011;26262;49.836;6.632;2022-08-25T07:10:01;4.95;;;3.67;;
39346;SDS011;26262;49.836;6.632;2022-08-25T07:12:27;5.35;;;3.45;;
39346;SDS011;26262;49.836;6.632;2022-08-25T07:14:53;4.10;;;3.28;;
39346;SDS011;26262;49.836;6.632;2022-08-25T07:17:20;4.38;;;3.30;;
39346;SDS011;26262;49.836;6.632;2022-08-25T07:19:47;4.85;;;3.25;;
39346;SDS011;26262;49.836;6.632;2022-08-25T07:22:13;5.13;;;3.00;;
39346;SDS011;26262;49.836;6.632;2022-08-25T07:24:38;3.58;;;2.78;;
39346;SDS011;26262;49.836;6.632;2022-08-25T07:27:05;4.97;;;3.45;;
39346;SDS011;26262;49.836;6.632;2022-08-25T07:29:30;3.53;;;3.10;;
39346;SDS011;26262;49.836;6.632;2022-08-25T07:32:00;4.13;;;3.03;;
39346;SDS011;26262;49.836;6.632;2022-08-25T07:34:27;3.95;;;3.17;;
39346;SDS011;26262;49.836;6.632;2022-08-25T07:37:11;4.90;;;3.30;;
39346;SDS011;26262;49.836;6.632;2022-08-25T07:39:36;4.35;;;3.08;;
39346;SDS011;26262;49.836;6.632;2022-08-25T07:42:02;4.57;;;3.38;;
39346;SDS011;26262;49.836;6.632;2022-08-25T07:44:28;3.13;;;2.83;;
39346;SDS011;26262;49.836;6.632;2022-08-25T07:46:55;4.07;;;3.33;;
39346;SDS011;26262;49.836;6.632;2022-08-25T07:49:21;5.80;;;3.35;;
39346;SDS011;26262;49.836;6.632;2022-08-25T07:51:48;4.05;;;3.10;;
39346;SDS011;26262;49.836;6.632;2022-08-25T07:54:14;9.95;;;3.60;;
39346;SDS011;26262;49.836;6.632;2022-08-25T07:56:39;4.25;;;3.20;;
39346;SDS011;26262;49.836;6.632;2022-08-25T07:59:07;4.47;;;2.92;;
39346;SDS011;26262;49.836;6.632;2022-08-25T08:01:33;4.00;;;2.65;;
39346;SDS011;26262;49.836;6.632;2022-08-25T08:03:59;4.15;;;3.00;;
39346;SDS011;26262;49.836;6.632;2022-08-25T08:06:24;5.22;;;2.97;;
39346;SDS011;26262;49.836;6.632;2022-08-25T08:08:50;4.00;;;3.13;;
39346;SDS011;26262;49.836;6.632;2022-08-25T08:11:18;4.25;;;3.40;;
39346;SDS011;26262;49.836;6.632;2022-08-25T08:13:52;3.40;;;2.47;;
39346;SDS011;26262;49.836;6.632;2022-08-25T08:16:19;4.93;;;2.95;;
39346;SDS011;26262;49.836;6.632;2022-08-25T08:18:47;3.97;;;3.30;;
39346;SDS011;26262;49.836;6.632;2022-08-25T08:21:20;3.20;;;2.67;;
39346;SDS011;26262;49.836;6.632;2022-08-25T08:23:48;3.58;;;2.63;;
39346;SDS011;26262;49.836;6.632;2022-08-25T08:28:40;5.15;;;3.15;;
39346;SDS011;26262;49.836;6.632;2022-08-25T08:31:06;8.65;;;6.78;;
39346;SDS011;26262;49.836;6.632;2022-08-25T08:33:32;5.68;;;4.85;;
39346;SDS011;26262;49.836;6.632;2022-08-25T08:36:00;4.03;;;2.85;;
39346;SDS011;26262;49.836;6.632;2022-08-25T08:38:32;3.00;;;2.70;;
39346;SDS011;26262;49.836;6.632;2022-08-25T08:41:02;5.05;;;3.00;;
39346;SDS011;26262;49.836;6.632;2022-08-25T08:43:49;6.10;;;3.03;;
39346;SDS011;26262;49.836;6.632;2022-08-25T08:46:39;4.43;;;2.88;;
39346;SDS011;26262;49.836;6.632;2022-08-25T08:49:26;4.20;;;2.65;;
39346;SDS011;26262;49.836;6.632;2022-08-25T08:51:58;4.25;;;3.22;;
39346;SDS011;26262;49.836;6.632;2022-08-25T08:54:28;2.83;;;2.35;;
39346;SDS011;26262;49.836;6.632;2022-08-25T08:57:21;3.90;;;2.70;;
39346;SDS011;26262;49.836;6.632;2022-08-25T08:59:48;3.28;;;2.83;;
39346;SDS011;26262;49.836;6.632;2022-08-25T09:05:07;3.67;;;3.15;;
39346;SDS011;26262;49.836;6.632;2022-08-25T09:07:39;3.00;;;2.63;;
39346;SDS011;26262;49.836;6.632;2022-08-25T09:10:08;4.00;;;3.03;;
39346;SDS011;26262;49.836;6.632;2022-08-25T09:12:45;4.10;;;2.90;;
39346;SDS011;26262;49.836;6.632;2022-08-25T09:15:32;3.65;;;2.80;;
39346;SDS011;26262;49.836;6.632;2022-08-25T09:18:27;4.10;;;2.80;;
39346;SDS011;26262;49.836;6.632;2022-08-25T09:21:35;4.78;;;3.00;;
39346;SDS011;26262;49.836;6.632;2022-08-25T09:26:53;4.70;;;2.80;;
39346;SDS011;26262;49.836;6.632;2022-08-25T09:29:35;3.95;;;2.80;;
39346;SDS011;26262;49.836;6.632;2022-08-25T09:32:29;5.03;;;2.70;;
39346;SDS011;26262;49.836;6.632;2022-08-25T09:34:59;3.92;;;2.50;;
39346;SDS011;26262;49.836;6.632;2022-08-25T09:37:26;3.42;;;2.53;;
39346;SDS011;26262;49.836;6.632;2022-08-25T09:39:51;4.03;;;2.63;;
39346;SDS011;26262;49.836;6.632;2022-08-25T09:42:18;6.78;;;2.83;;
39346;SDS011;26262;49.836;6.632;2022-08-25T09:44:44;4.85;;;2.65;;
39346;SDS011;26262;49.836;6.632;2022-08-25T09:47:14;3.63;;;2.90;;
39346;SDS011;26262;49.836;6.632;2022-08-25T09:49:47;3.75;;;2.67;;
39346;SDS011;26262;49.836;6.632;2022-08-25T09:54:56;3.90;;;2.85;;
39346;SDS011;26262;49.836;6.632;2022-08-25T09:57:48;4.15;;;2.53;;
39346;SDS011;26262;49.836;6.632;2022-08-25T10:00:18;4.28;;;2.97;;
39346;SDS011;26262;49.836;6.632;2022-08-25T10:08:29;3.03;;;2.50;;
39346;SDS011;26262;49.836;6.632;2022-08-25T10:11:39;3.37;;;2.80;;
39346;SDS011;26262;49.836;6.632;2022-08-25T10:16:42;4.63;;;3.13;;
39346;SDS011;26262;49.836;6.632;2022-08-25T10:19:11;18.50;;;3.53;;
39346;SDS011;26262;49.836;6.632;2022-08-25T10:22:00;3.38;;;2.92;;
39346;SDS011;26262;49.836;6.632;2022-08-25T10:24:44;3.75;;;2.50;;
39346;SDS011;26262;49.836;6.632;2022-08-25T10:27:14;6.63;;;2.78;;
39346;SDS011;26262;49.836;6.632;2022-08-25T10:41:04;4.18;;;2.65;;
39346;SDS011;26262;49.836;6.632;2022-08-25T10:43:52;2.80;;;2.42;;
39346;SDS011;26262;49.836;6.632;2022-08-25T10:46:40;6.40;;;2.63;;
39346;SDS011;26262;49.836;6.632;2022-08-25T10:49:22;4.13;;;2.72;;
39346;SDS011;26262;49.836;6.632;2022-08-25T10:52:02;4.63;;;2.80;;
39346;SDS011;26262;49.836;6.632;2022-08-25T10:57:21;3.28;;;2.55;;
39346;SDS011;26262;49.836;6.632;2022-08-25T11:08:22;2.80;;;2.50;;
39346;SDS011;26262;49.836;6.632;2022-08-25T11:12:02;3.05;;;2.30;;
39346;SDS011;26262;49.836;6.632;2022-08-25T11:14:01;4.30;;;2.63;;
39346;SDS011;26262;49.836;6.632;2022-08-25T11:22:10;2.83;;;2.40;;
39346;SDS011;26262;49.836;6.632;2022-08-25T11:27:44;5.68;;;2.50;;
39346;SDS011;26262;49.836;6.632;2022-08-25T11:30:31;3.03;;;2.30;;
39346;SDS011;26262;49.836;6.632;2022-08-25T11:32:57;4.60;;;2.60;;
39346;SDS011;26262;49.836;6.632;2022-08-25T11:35:31;3.78;;;2.67;;
39346;SDS011;26262;49.836;6.632;2022-08-25T11:50:22;3.15;;;2.30;;
39346;SDS011;26262;49.836;6.632;2022-08-25T11:52:51;5.70;;;2.83;;
39346;SDS011;26262;49.836;6.632;2022-08-25T11:57:50;3.42;;;2.50;;
39346;SDS011;26262;49.836;6.632;2022-08-25T12:00:43;2.80;;;2.42;;
39346;SDS011;26262;49.836;6.632;2022-08-25T12:06:19;3.17;;;2.40;;
39346;SDS011;26262;49.836;6.632;2022-08-25T12:08:52;2.38;;;2.00;;
39346;SDS011;26262;49.836;6.632;2022-08-25T12:16:43;4.45;;;2.20;;
39346;SDS011;26262;49.836;6.632;2022-08-25T12:27:08;4.28;;;2.40;;
39346;SDS011;26262;49.836;6.632;2022-08-25T12:30:04;3.30;;;2.13;;
39346;SDS011;26262;49.836;6.632;2022-08-25T12:33:11;3.90;;;2.10;;
39346;SDS011;26262;49.836;6.632;2022-08-25T12:36:04;4.40;;;2.17;;
39346;SDS011;26262;49.836;6.632;2022-08-25T12:38:33;3.88;;;1.95;;
39346;SDS011;26262;49.836;6.632;2022-08-25T12:41:09;3.90;;;2.33;;
39346;SDS011;26262;49.836;6.632;2022-08-25T12:44:08;4.70;;;2.28;;
39346;SDS011;26262;49.836;6.632;2022-08-25T12:47:23;3.85;;;1.98;;
39346;SDS011;26262;49.836;6.632;2022-08-25T12:50:23;2.47;;;2.00;;
39346;SDS011;26262;49.836;6.632;2022-08-25T12:52:51;3.25;;;2.10;;
39346;SDS011;26262;49.836;6.632;2022-08-25T12:55:18;3.03;;;2.00;;
39346;SDS011;26262;49.836;6.632;2022-08-25T12:57:49;5.20;;;2.47;;
39346;SDS011;26262;49.836;6.632;2022-08-25T13:00:24;2.55;;;2.20;;
39346;SDS011;26262;49.836;6.632;2022-08-25T13:03:12;3.25;;;2.05;;
39346;SDS011;26262;49.836;6.632;2022-08-25T13:06:16;3.22;;;2.05;;
39346;SDS011;26262;49.836;6.632;2022-08-25T13:12:03;3.92;;;2.20;;
39346;SDS011;26262;49.836;6.632;2022-08-25T13:14:44;2.33;;;2.00;;
39346;SDS011;26262;49.836;6.632;2022-08-25T13:17:29;5.18;;;2.10;;
39346;SDS011;26262;49.836;6.632;2022-08-25T13:20:19;2.63;;;2.05;;
39346;SDS011;26262;49.836;6.632;2022-08-25T13:22:49;3.10;;;1.67;;
39346;SDS011;26262;49.836;6.632;2022-08-25T13:25:18;3.65;;;2.30;;
39346;SDS011;26262;49.836;6.632;2022-08-25T13:27:50;2.40;;;1.67;;
39346;SDS011;26262;49.836;6.632;2022-08-25T13:30:21;2.15;;;1.80;;
39346;SDS011;26262;49.836;6.632;2022-08-25T13:32:55;2.40;;;2.10;;
39346;SDS011;26262;49.836;6.632;2022-08-25T13:35:24;2.55;;;2.30;;
39346;SDS011;26262;49.836;6.632;2022-08-25T13:37:50;1.90;;;1.70;;
39346;SDS011;26262;49.836;6.632;2022-08-25T13:40:25;2.88;;;2.40;;
39346;SDS011;26262;49.836;6.632;2022-08-25T13:42:55;2.80;;;1.67;;
39346;SDS011;26262;49.836;6.632;2022-08-25T13:45:25;2.33;;;2.08;;
39346;SDS011;26262;49.836;6.632;2022-08-25T13:47:52;4.35;;;2.00;;
39346;SDS011;26262;49.836;6.632;2022-08-25T13:50:37;2.53;;;1.73;;
39346;SDS011;26262;49.836;6.632;2022-08-25T13:55:49;2.30;;;1.83;;
39346;SDS011;26262;49.836;6.632;2022-08-25T13:58:19;2.38;;;1.85;;
39346;SDS011;26262;49.836;6.632;2022-08-25T14:06:25;4.22;;;2.05;;
39346;SDS011;26262;49.836;6.632;2022-08-25T14:11:29;3.03;;;1.90;;
39346;SDS011;26262;49.836;6.632;2022-08-25T14:14:02;2.25;;;1.88;;
39346;SDS011;26262;49.836;6.632;2022-08-25T14:16:30;3.78;;;2.00;;
39346;SDS011;26262;49.836;6.632;2022-08-25T14:19:00;2.58;;;2.08;;
39346;SDS011;26262;49.836;6.632;2022-08-25T14:21:28;2.63;;;1.92;;
39346;SDS011;26262;49.836;6.632;2022-08-25T14:23:55;4.22;;;2.20;;
39346;SDS011;26262;49.836;6.632;2022-08-25T14:26:21;3.47;;;3.00;;
39346;SDS011;26262;49.836;6.632;2022-08-25T14:28:47;2.33;;;2.08;;
39346;SDS011;26262;49.836;6.632;2022-08-25T14:31:20;2.50;;;1.93;;
39346;SDS011;26262;49.836;6.632;2022-08-25T14:33:53;2.53;;;1.88;;
39346;SDS011;26262;49.836;6.632;2022-08-25T14:36:25;2.55;;;1.60;;
39346;SDS011;26262;49.836;6.632;2022-08-25T14:38:52;2.53;;;2.10;;
39346;SDS011;26262;49.836;6.632;2022-08-25T14:41:18;2.75;;;2.10;;
39346;SDS011;26262;49.836;6.632;2022-08-25T14:43:44;2.53;;;1.97;;
39346;SDS011;26262;49.836;6.632;2022-08-25T14:46:20;4.03;;;1.90;;
39346;SDS011;26262;49.836;6.632;2022-08-25T14:48:49;3.70;;;2.20;;
39346;SDS011;26262;49.836;6.632;2022-08-25T14:51:19;3.40;;;1.60;;
39346;SDS011;26262;49.836;6.632;2022-08-25T14:53:45;1.67;;;1.58;;
39346;SDS011;26262;49.836;6.632;2022-08-25T14:56:11;2.87;;;1.80;;
39346;SDS011;26262;49.836;6.632;2022-08-25T14:58:37;2.30;;;1.63;;
39346;SDS011;26262;49.836;6.632;2022-08-25T15:03:30;1.60;;;1.50;;
39346;SDS011;26262;49.836;6.632;2022-08-25T15:06:01;4.35;;;1.88;;
39346;SDS011;26262;49.836;6.632;2022-08-25T15:08:28;2.03;;;1.80;;
39346;SDS011;26262;49.836;6.632;2022-08-25T15:11:12;2.92;;;1.83;;
39346;SDS011;26262;49.836;6.632;2022-08-25T15:13:38;1.90;;;1.73;;
39346;SDS011;26262;49.836;6.632;2022-08-25T15:16:04;3.13;;;2.10;;
39346;SDS011;26262;49.836;6.632;2022-08-25T15:18:31;2.42;;;1.70;;
39346;SDS011;26262;49.836;6.632;2022-08-25T15:20:56;4.87;;;2.53;;
39346;SDS011;26262;49.836;6.632;2022-08-25T15:23:22;8.55;;;2.33;;
39346;SDS011;26262;49.836;6.632;2022-08-25T15:25:48;3.17;;;2.38;;
39346;SDS011;26262;49.836;6.632;2022-08-25T15:28:15;3.65;;;1.95;;
39346;SDS011;26262;49.836;6.632;2022-08-25T15:30:40;2.70;;;2.03;;
39346;SDS011;26262;49.836;6.632;2022-08-25T15:33:06;2.85;;;1.98;;
39346;SDS011;26262;49.836;6.632;2022-08-25T15:35:32;3.05;;;2.20;;
39346;SDS011;26262;49.836;6.632;2022-08-25T15:37:58;3.20;;;2.40;;
39346;SDS011;26262;49.836;6.632;2022-08-25T15:40:25;2.75;;;1.95;;
39346;SDS011;26262;49.836;6.632;2022-08-25T15:42:51;7.10;;;3.38;;
39346;SDS011;26262;49.836;6.632;2022-08-25T15:45:17;3.63;;;2.60;;
39346;SDS011;26262;49.836;6.632;2022-08-25T15:47:43;4.55;;;2.38;;
39346;SDS011;26262;49.836;6.632;2022-08-25T15:50:10;3.17;;;2.10;;
39346;SDS011;26262;49.836;6.632;2022-08-25T15:52:39;3.50;;;2.10;;
39346;SDS011;26262;49.836;6.632;2022-08-25T15:55:06;2.33;;;2.10;;
39346;SDS011;26262;49.836;6.632;2022-08-25T15:57:32;2.95;;;2.22;;
39346;SDS011;26262;49.836;6.632;2022-08-25T15:59:58;3.58;;;2.03;;
39346;SDS011;26262;49.836;6.632;2022-08-25T16:02:23;2.92;;;2.25;;
39346;SDS011;26262;49.836;6.632;2022-08-25T16:04:49;4.60;;;2.40;;
39346;SDS011;26262;49.836;6.632;2022-08-25T16:07:17;3.88;;;2.88;;
39346;SDS011;26262;49.836;6.632;2022-08-25T16:09:43;3.60;;;2.40;;
39346;SDS011;26262;49.836;6.632;2022-08-25T16:12:09;3.25;;;2.20;;
39346;SDS011;26262;49.836;6.632;2022-08-25T16:14:35;9.10;;;2.50;;
39346;SDS011;26262;49.836;6.632;2022-08-25T16:17:01;12.00;;;2.85;;
39346;SDS011;26262;49.836;6.632;2022-08-25T16:19:27;5.80;;;2.95;;
39346;SDS011;26262;49.836;6.632;2022-08-25T16:21:53;3.78;;;2.33;;
39346;SDS011;26262;49.836;6.632;2022-08-25T16:24:20;3.30;;;2.50;;
39346;SDS011;26262;49.836;6.632;2022-08-25T16:26:46;2.70;;;2.40;;
39346;SDS011;26262;49.836;6.632;2022-08-25T16:29:11;3.90;;;2.17;;
39346;SDS011;26262;49.836;6.632;2022-08-25T16:31:39;3.33;;;2.40;;
39346;SDS011;26262;49.836;6.632;2022-08-25T16:34:05;4.32;;;2.25;;
39346;SDS011;26262;49.836;6.632;2022-08-25T16:36:31;2.80;;;2.20;;
39346;SDS011;26262;49.836;6.632;2022-08-25T16:38:56;3.95;;;2.03;;
39346;SDS011;26262;49.836;6.632;2022-08-25T16:41:23;3.63;;;2.25;;
39346;SDS011;26262;49.836;6.632;2022-08-25T16:43:51;2.95;;;2.10;;